sensor_id;sensor_type;location;lat;lon;timestamp;temperature;humidity
25280;DHT22;13225;47.804;12.116;2022-10-16T00:00:57;14.60;99.90
25280;DHT22;13225;47.804;12.116;2022-10-16T00:03:23;14.60;99.90
25280;DHT22;13225;47.804;12.116;2022-10-16T00:05:49;14.60;99.90
25280;DHT22;13225;47.804;12.116;2022-10-16T00:08:15;14.60;99.90
25280;DHT22;13225;47.804;12.116;2022-10-16T00:10:40;14.60;99.90
25280;DHT22;13225;47.804;12.116;2022-10-16T00:13:06;14.60;99.90
25280;DHT22;13225;47.804;12.116;2022-10-16T00:15:36;14.70;99.90
25280;DHT22;13225;47.804;12.116;2022-10-16T00:18:03;14.60;99.90
25280;DHT22;13225;47.804;12.116;2022-10-16T00:20:29;14.60;99.90
25280;DHT22;13225;47.804;12.116;2022-10-16T00:22:56;14.60;99.90
25280;DHT22;13225;47.804;12.116;2022-10-16T00:25:22;14.50;99.90
25280;DHT22;13225;47.804;12.116;2022-10-16T00:27:48;14.40;99.90
25280;DHT22;13225;47.804;12.116;2022-10-16T00:30:14;14.50;99.90
25280;DHT22;13225;47.804;12.116;2022-10-16T00:32:39;14.50;99.90
25280;DHT22;13225;47.804;12.116;2022-10-16T00:35:05;14.50;99.90
25280;DHT22;13225;47.804;12.116;2022-10-16T00:37:31;14.50;99.90
25280;DHT22;13225;47.804;12.116;2022-10-16T00:39:56;14.40;99.90
25280;DHT22;13225;47.804;12.116;2022-10-16T00:42:22;14.50;99.90
25280;DHT22;13225;47.804;12.116;2022-10-16T00:44:56;14.50;99.90
25280;DHT22;13225;47.804;12.116;2022-10-16T00:47:30;14.50;99.90
25280;DHT22;13225;47.804;12.116;2022-10-16T00:52:31;14.40;99.90
25280;DHT22;13225;47.804;12.116;2022-10-16T00:54:57;14.30;99.90
25280;DHT22;13225;47.804;12.116;2022-10-16T00:57:24;14.20;99.90
25280;DHT22;13225;47.804;12.116;2022-10-16T00:59:50;14.30;99.90
25280;DHT22;13225;47.804;12.116;2022-10-16T01:02:17;14.20;99.90
25280;DHT22;13225;47.804;12.116;2022-10-16T01:04:53;14.30;99.90
25280;DHT22;13225;47.804;12.116;2022-10-16T01:13:06;14.20;99.90
25280;DHT22;13225;47.804;12.116;2022-10-16T01:15:54;14.20;99.90
25280;DHT22;13225;47.804;12.116;2022-10-16T01:27:24;14.30;99.90
25280;DHT22;13225;47.804;12.116;2022-10-16T01:29:52;14.30;99.90
25280;DHT22;13225;47.804;12.116;2022-10-16T01:32:40;14.10;99.90
25280;DHT22;13225;47.804;12.116;2022-10-16T01:37:42;14.10;99.90
25280;DHT22;13225;47.804;12.116;2022-10-16T01:40:11;14.10;99.90
25280;DHT22;13225;47.804;12.116;2022-10-16T01:42:44;14.20;99.90
25280;DHT22;13225;47.804;12.116;2022-10-16T01:45:13;14.30;99.90
25280;DHT22;13225;47.804;12.116;2022-10-16T01:47:40;14.30;99.90
25280;DHT22;13225;47.804;12.116;2022-10-16T01:50:09;14.30;99.90
25280;DHT22;13225;47.804;12.116;2022-10-16T01:52:38;14.30;99.90
25280;DHT22;13225;47.804;12.116;2022-10-16T01:55:07;14.30;99.90
25280;DHT22;13225;47.804;12.116;2022-10-16T01:57:37;14.30;99.90
25280;DHT22;13225;47.804;12.116;2022-10-16T02:00:08;14.30;99.90
25280;DHT22;13225;47.804;12.116;2022-10-16T02:02:35;14.30;99.90
25280;DHT22;13225;47.804;12.116;2022-10-16T02:05:28;14.30;99.90
25280;DHT22;13225;47.804;12.116;2022-10-16T02:07:56;14.30;99.90
25280;DHT22;13225;47.804;12.116;2022-10-16T02:10:23;14.40;99.90
25280;DHT22;13225;47.804;12.116;2022-10-16T02:13:23;14.30;99.90
25280;DHT22;13225;47.804;12.116;2022-10-16T02:15:51;14.20;99.90
25280;DHT22;13225;47.804;12.116;2022-10-16T02:18:17;14.20;99.90
25280;DHT22;13225;47.804;12.116;2022-10-16T02:20:58;14.20;99.90
25280;DHT22;13225;47.804;12.116;2022-10-16T02:23:54;14.10;99.90
25280;DHT22;13225;47.804;12.116;2022-10-16T02:29:06;14.10;99.90
25280;DHT22;13225;47.804;12.116;2022-10-16T02:31:36;14.00;99.90
25280;DHT22;13225;47.804;12.116;2022-10-16T02:34:03;14.00;99.90
25280;DHT22;13225;47.804;12.116;2022-10-16T02:36:31;14.00;99.90
25280;DHT22;13225;47.804;12.116;2022-10-16T02:38:58;14.00;99.90
25280;DHT22;13225;47.804;12.116;2022-10-16T02:41:26;14.00;99.90
25280;DHT22;13225;47.804;12.116;2022-10-16T02:43:51;14.10;99.90
25280;DHT22;13225;47.804;12.116;2022-10-16T02:46:17;14.10;99.90
25280;DHT22;13225;47.804;12.116;2022-10-16T02:48:44;14.10;99.90
25280;DHT22;13225;47.804;12.116;2022-10-16T02:51:09;14.10;99.90
25280;DHT22;13225;47.804;12.116;2022-10-16T02:53:35;14.20;99.90
25280;DHT22;13225;47.804;12.116;2022-10-16T02:56:01;14.10;99.90
25280;DHT22;13225;47.804;12.116;2022-10-16T02:58:26;14.20;99.90
25280;DHT22;13225;47.804;12.116;2022-10-16T03:00:52;14.20;99.90
25280;DHT22;13225;47.804;12.116;2022-10-16T03:03:18;14.20;99.90
25280;DHT22;13225;47.804;12.116;2022-10-16T03:05:44;14.20;99.90
25280;DHT22;13225;47.804;12.116;2022-10-16T03:08:11;14.20;99.90
25280;DHT22;13225;47.804;12.116;2022-10-16T03:10:37;14.10;99.90
25280;DHT22;13225;47.804;12.116;2022-10-16T03:13:03;14.10;99.90
25280;DHT22;13225;47.804;12.116;2022-10-16T03:15:28;14.10;99.90
25280;DHT22;13225;47.804;12.116;2022-10-16T03:17:54;14.10;99.90
25280;DHT22;13225;47.804;12.116;2022-10-16T03:20:20;14.10;99.90
25280;DHT22;13225;47.804;12.116;2022-10-16T03:22:46;14.00;99.90
25280;DHT22;13225;47.804;12.116;2022-10-16T03:25:11;14.00;99.90
25280;DHT22;13225;47.804;12.116;2022-10-16T03:27:37;14.10;99.90
25280;DHT22;13225;47.804;12.116;2022-10-16T03:30:03;14.00;99.90
25280;DHT22;13225;47.804;12.116;2022-10-16T03:32:29;14.00;99.90
25280;DHT22;13225;47.804;12.116;2022-10-16T03:34:54;14.00;99.90
25280;DHT22;13225;47.804;12.116;2022-10-16T03:37:21;14.10;99.90
25280;DHT22;13225;47.804;12.116;2022-10-16T03:39:47;14.00;99.90
25280;DHT22;13225;47.804;12.116;2022-10-16T03:42:13;14.00;99.90
25280;DHT22;13225;47.804;12.116;2022-10-16T03:44:38;14.00;99.90
25280;DHT22;13225;47.804;12.116;2022-10-16T03:47:04;13.90;99.90
25280;DHT22;13225;47.804;12.116;2022-10-16T03:49:29;13.90;99.90
25280;DHT22;13225;47.804;12.116;2022-10-16T03:51:55;13.90;99.90
25280;DHT22;13225;47.804;12.116;2022-10-16T03:54:21;13.90;99.90
25280;DHT22;13225;47.804;12.116;2022-10-16T03:56:47;13.80;99.90
25280;DHT22;13225;47.804;12.116;2022-10-16T03:59:13;13.80;99.90
25280;DHT22;13225;47.804;12.116;2022-10-16T04:01:39;13.80;99.90
25280;DHT22;13225;47.804;12.116;2022-10-16T04:04:04;13.80;99.90
25280;DHT22;13225;47.804;12.116;2022-10-16T04:06:30;13.70;99.90
25280;DHT22;13225;47.804;12.116;2022-10-16T04:08:55;13.70;99.90
25280;DHT22;13225;47.804;12.116;2022-10-16T04:11:22;13.70;99.90
25280;DHT22;13225;47.804;12.116;2022-10-16T04:13:48;13.60;99.90
25280;DHT22;13225;47.804;12.116;2022-10-16T04:16:13;13.60;99.90
25280;DHT22;13225;47.804;12.116;2022-10-16T04:18:39;13.50;99.90
25280;DHT22;13225;47.804;12.116;2022-10-16T04:21:06;13.60;99.90
25280;DHT22;13225;47.804;12.116;2022-10-16T04:23:33;13.70;99.90
25280;DHT22;13225;47.804;12.116;2022-10-16T04:25:59;13.70;99.90
25280;DHT22;13225;47.804;12.116;2022-10-16T04:28:24;13.60;99.90
25280;DHT22;13225;47.804;12.116;2022-10-16T04:30:50;13.60;99.90
25280;DHT22;13225;47.804;12.116;2022-10-16T04:33:16;13.60;99.90
25280;DHT22;13225;47.804;12.116;2022-10-16T04:35:41;13.60;99.90
25280;DHT22;13225;47.804;12.116;2022-10-16T04:38:07;13.60;99.90
25280;DHT22;13225;47.804;12.116;2022-10-16T04:40:33;13.60;99.90
25280;DHT22;13225;47.804;12.116;2022-10-16T04:43:02;13.60;99.90
25280;DHT22;13225;47.804;12.116;2022-10-16T04:45:28;13.70;99.90
25280;DHT22;13225;47.804;12.116;2022-10-16T04:48:00;13.70;99.90
25280;DHT22;13225;47.804;12.116;2022-10-16T04:50:26;13.70;99.90
25280;DHT22;13225;47.804;12.116;2022-10-16T04:52:52;13.70;99.90
25280;DHT22;13225;47.804;12.116;2022-10-16T04:55:17;13.70;99.90
25280;DHT22;13225;47.804;12.116;2022-10-16T04:57:43;13.70;99.90
25280;DHT22;13225;47.804;12.116;2022-10-16T05:00:09;13.70;99.90
25280;DHT22;13225;47.804;12.116;2022-10-16T05:02:38;13.70;99.90
25280;DHT22;13225;47.804;12.116;2022-10-16T05:05:04;13.70;99.90
25280;DHT22;13225;47.804;12.116;2022-10-16T05:07:30;13.70;99.90
25280;DHT22;13225;47.804;12.116;2022-10-16T05:09:55;13.70;99.90
25280;DHT22;13225;47.804;12.116;2022-10-16T05:12:21;13.60;99.90
25280;DHT22;13225;47.804;12.116;2022-10-16T05:14:47;13.60;99.90
25280;DHT22;13225;47.804;12.116;2022-10-16T05:17:12;13.60;99.90
25280;DHT22;13225;47.804;12.116;2022-10-16T05:19:38;13.70;99.90
25280;DHT22;13225;47.804;12.116;2022-10-16T05:22:04;13.60;99.90
25280;DHT22;13225;47.804;12.116;2022-10-16T05:24:29;13.60;99.90
25280;DHT22;13225;47.804;12.116;2022-10-16T05:26:55;13.60;99.90
25280;DHT22;13225;47.804;12.116;2022-10-16T05:29:20;13.60;99.90
25280;DHT22;13225;47.804;12.116;2022-10-16T05:31:46;13.60;99.90
25280;DHT22;13225;47.804;12.116;2022-10-16T05:34:12;13.70;99.90
25280;DHT22;13225;47.804;12.116;2022-10-16T05:36:37;13.70;99.90
25280;DHT22;13225;47.804;12.116;2022-10-16T05:39:03;13.70;99.90
25280;DHT22;13225;47.804;12.116;2022-10-16T05:41:29;13.80;99.90
25280;DHT22;13225;47.804;12.116;2022-10-16T05:43:54;13.90;99.90
25280;DHT22;13225;47.804;12.116;2022-10-16T05:46:20;13.90;99.90
25280;DHT22;13225;47.804;12.116;2022-10-16T05:48:46;14.00;99.90
25280;DHT22;13225;47.804;12.116;2022-10-16T05:51:13;14.00;99.90
25280;DHT22;13225;47.804;12.116;2022-10-16T05:53:40;14.10;99.90
25280;DHT22;13225;47.804;12.116;2022-10-16T05:56:07;14.10;99.90
25280;DHT22;13225;47.804;12.116;2022-10-16T05:58:36;14.20;99.90
25280;DHT22;13225;47.804;12.116;2022-10-16T06:01:07;14.20;99.90
25280;DHT22;13225;47.804;12.116;2022-10-16T06:03:33;14.30;99.90
25280;DHT22;13225;47.804;12.116;2022-10-16T06:05:59;14.40;99.90
25280;DHT22;13225;47.804;12.116;2022-10-16T06:08:32;14.50;99.90
25280;DHT22;13225;47.804;12.116;2022-10-16T06:11:06;14.50;99.90
25280;DHT22;13225;47.804;12.116;2022-10-16T06:13:32;14.60;99.90
25280;DHT22;13225;47.804;12.116;2022-10-16T06:15:59;14.60;99.90
25280;DHT22;13225;47.804;12.116;2022-10-16T06:18:26;14.60;99.90
25280;DHT22;13225;47.804;12.116;2022-10-16T06:20:53;14.70;99.90
25280;DHT22;13225;47.804;12.116;2022-10-16T06:23:18;14.70;99.90
25280;DHT22;13225;47.804;12.116;2022-10-16T06:25:44;14.70;99.90
25280;DHT22;13225;47.804;12.116;2022-10-16T06:28:10;14.80;99.90
25280;DHT22;13225;47.804;12.116;2022-10-16T06:30:35;14.80;99.90
25280;DHT22;13225;47.804;12.116;2022-10-16T06:33:01;14.80;99.90
25280;DHT22;13225;47.804;12.116;2022-10-16T06:35:26;14.80;99.90
25280;DHT22;13225;47.804;12.116;2022-10-16T06:37:53;14.80;99.90
25280;DHT22;13225;47.804;12.116;2022-10-16T06:40:18;14.70;99.90
25280;DHT22;13225;47.804;12.116;2022-10-16T06:42:44;14.70;99.90
25280;DHT22;13225;47.804;12.116;2022-10-16T06:45:10;14.70;99.90
25280;DHT22;13225;47.804;12.116;2022-10-16T06:47:36;14.70;99.90
25280;DHT22;13225;47.804;12.116;2022-10-16T06:50:02;14.70;99.90
25280;DHT22;13225;47.804;12.116;2022-10-16T06:52:29;14.80;99.90
25280;DHT22;13225;47.804;12.116;2022-10-16T06:54:54;14.90;99.90
25280;DHT22;13225;47.804;12.116;2022-10-16T06:57:20;14.90;99.90
25280;DHT22;13225;47.804;12.116;2022-10-16T06:59:46;15.00;99.90
25280;DHT22;13225;47.804;12.116;2022-10-16T07:02:11;15.10;99.90
25280;DHT22;13225;47.804;12.116;2022-10-16T07:04:37;15.10;99.90
25280;DHT22;13225;47.804;12.116;2022-10-16T07:07:02;15.10;99.90
25280;DHT22;13225;47.804;12.116;2022-10-16T07:09:28;15.20;99.90
25280;DHT22;13225;47.804;12.116;2022-10-16T07:11:54;15.20;99.90
25280;DHT22;13225;47.804;12.116;2022-10-16T07:14:21;15.20;99.90
25280;DHT22;13225;47.804;12.116;2022-10-16T07:16:47;15.30;99.90
25280;DHT22;13225;47.804;12.116;2022-10-16T07:19:13;15.20;99.90
25280;DHT22;13225;47.804;12.116;2022-10-16T07:21:40;15.20;99.90
25280;DHT22;13225;47.804;12.116;2022-10-16T07:24:11;15.20;99.90
25280;DHT22;13225;47.804;12.116;2022-10-16T07:26:38;15.30;99.90
25280;DHT22;13225;47.804;12.116;2022-10-16T07:29:06;15.30;99.90
25280;DHT22;13225;47.804;12.116;2022-10-16T07:31:33;15.30;99.90
25280;DHT22;13225;47.804;12.116;2022-10-16T07:33:59;15.20;99.90
25280;DHT22;13225;47.804;12.116;2022-10-16T07:36:25;15.30;99.90
25280;DHT22;13225;47.804;12.116;2022-10-16T07:38:51;15.50;99.90
25280;DHT22;13225;47.804;12.116;2022-10-16T07:41:19;15.60;99.90
25280;DHT22;13225;47.804;12.116;2022-10-16T07:43:49;15.70;99.90
25280;DHT22;13225;47.804;12.116;2022-10-16T07:46:16;15.80;99.90
25280;DHT22;13225;47.804;12.116;2022-10-16T07:48:43;15.80;99.90
25280;DHT22;13225;47.804;12.116;2022-10-16T07:51:12;15.90;99.90
25280;DHT22;13225;47.804;12.116;2022-10-16T07:53:37;16.10;99.90
25280;DHT22;13225;47.804;12.116;2022-10-16T07:56:05;16.20;99.90
25280;DHT22;13225;47.804;12.116;2022-10-16T07:58:33;16.20;99.90
25280;DHT22;13225;47.804;12.116;2022-10-16T08:01:02;16.30;99.90
25280;DHT22;13225;47.804;12.116;2022-10-16T08:03:30;16.40;99.90
25280;DHT22;13225;47.804;12.116;2022-10-16T08:05:57;16.50;99.90
25280;DHT22;13225;47.804;12.116;2022-10-16T08:08:22;16.50;99.90
25280;DHT22;13225;47.804;12.116;2022-10-16T08:10:49;16.50;99.90
25280;DHT22;13225;47.804;12.116;2022-10-16T08:13:15;16.50;99.90
25280;DHT22;13225;47.804;12.116;2022-10-16T08:15:42;16.60;99.90
25280;DHT22;13225;47.804;12.116;2022-10-16T08:18:09;16.60;99.90
25280;DHT22;13225;47.804;12.116;2022-10-16T08:20:35;16.60;99.90
25280;DHT22;13225;47.804;12.116;2022-10-16T08:23:00;16.60;99.90
25280;DHT22;13225;47.804;12.116;2022-10-16T08:25:26;16.70;99.90
25280;DHT22;13225;47.804;12.116;2022-10-16T08:27:52;16.80;99.90
25280;DHT22;13225;47.804;12.116;2022-10-16T08:30:19;17.00;99.90
25280;DHT22;13225;47.804;12.116;2022-10-16T08:32:46;17.00;99.90
25280;DHT22;13225;47.804;12.116;2022-10-16T08:35:12;17.10;99.90
25280;DHT22;13225;47.804;12.116;2022-10-16T08:37:38;17.20;99.90
25280;DHT22;13225;47.804;12.116;2022-10-16T08:40:06;17.30;99.90
25280;DHT22;13225;47.804;12.116;2022-10-16T08:50:31;17.60;99.90
25280;DHT22;13225;47.804;12.116;2022-10-16T08:52:59;17.70;99.90
25280;DHT22;13225;47.804;12.116;2022-10-16T08:55:43;17.80;99.90
25280;DHT22;13225;47.804;12.116;2022-10-16T08:58:29;17.90;99.90
25280;DHT22;13225;47.804;12.116;2022-10-16T09:01:01;17.90;99.90
25280;DHT22;13225;47.804;12.116;2022-10-16T09:14:58;18.40;99.90
25280;DHT22;13225;47.804;12.116;2022-10-16T09:23:31;18.50;99.90
25280;DHT22;13225;47.804;12.116;2022-10-16T09:25:59;18.50;99.90
25280;DHT22;13225;47.804;12.116;2022-10-16T09:28:25;18.60;99.90
25280;DHT22;13225;47.804;12.116;2022-10-16T09:30:51;18.70;99.90
25280;DHT22;13225;47.804;12.116;2022-10-16T09:33:20;18.60;99.90
25280;DHT22;13225;47.804;12.116;2022-10-16T09:35:49;18.70;99.90
25280;DHT22;13225;47.804;12.116;2022-10-16T09:38:41;18.70;99.90
25280;DHT22;13225;47.804;12.116;2022-10-16T09:41:19;18.70;99.90
25280;DHT22;13225;47.804;12.116;2022-10-16T09:43:59;18.80;99.90
25280;DHT22;13225;47.804;12.116;2022-10-16T09:46:33;18.80;99.90
25280;DHT22;13225;47.804;12.116;2022-10-16T09:49:05;18.80;99.90
25280;DHT22;13225;47.804;12.116;2022-10-16T09:51:33;18.80;99.90
25280;DHT22;13225;47.804;12.116;2022-10-16T09:54:02;18.80;99.90
25280;DHT22;13225;47.804;12.116;2022-10-16T09:56:31;18.80;99.90
25280;DHT22;13225;47.804;12.116;2022-10-16T09:59:18;18.80;99.90
25280;DHT22;13225;47.804;12.116;2022-10-16T10:01:51;18.90;99.90
25280;DHT22;13225;47.804;12.116;2022-10-16T10:04:17;19.00;99.90
25280;DHT22;13225;47.804;12.116;2022-10-16T10:06:49;19.00;99.90
25280;DHT22;13225;47.804;12.116;2022-10-16T10:09:23;19.20;99.90
25280;DHT22;13225;47.804;12.116;2022-10-16T10:11:57;19.20;99.90
25280;DHT22;13225;47.804;12.116;2022-10-16T10:14:35;19.30;99.90
25280;DHT22;13225;47.804;12.116;2022-10-16T10:17:10;19.50;99.90
25280;DHT22;13225;47.804;12.116;2022-10-16T10:19:43;19.50;99.90
25280;DHT22;13225;47.804;12.116;2022-10-16T10:30:15;20.10;99.90
25280;DHT22;13225;47.804;12.116;2022-10-16T10:35:45;20.30;99.90
25280;DHT22;13225;47.804;12.116;2022-10-16T10:47:39;20.60;99.90
25280;DHT22;13225;47.804;12.116;2022-10-16T10:50:22;20.80;99.90
25280;DHT22;13225;47.804;12.116;2022-10-16T11:01:09;21.40;99.90
25280;DHT22;13225;47.804;12.116;2022-10-16T11:06:24;21.70;99.90
25280;DHT22;13225;47.804;12.116;2022-10-16T11:08:56;21.90;99.90
25280;DHT22;13225;47.804;12.116;2022-10-16T11:11:29;22.10;99.90
25280;DHT22;13225;47.804;12.116;2022-10-16T11:17:04;22.30;99.90
25280;DHT22;13225;47.804;12.116;2022-10-16T11:22:38;22.40;99.90
25280;DHT22;13225;47.804;12.116;2022-10-16T11:27:38;22.60;99.90
25280;DHT22;13225;47.804;12.116;2022-10-16T11:30:14;22.60;99.90
25280;DHT22;13225;47.804;12.116;2022-10-16T11:35:42;22.90;99.90
25280;DHT22;13225;47.804;12.116;2022-10-16T11:40:50;23.00;99.90
25280;DHT22;13225;47.804;12.116;2022-10-16T11:43:37;23.10;99.90
25280;DHT22;13225;47.804;12.116;2022-10-16T11:46:24;23.10;99.90
25280;DHT22;13225;47.804;12.116;2022-10-16T11:49:03;23.10;99.90
25280;DHT22;13225;47.804;12.116;2022-10-16T11:51:38;23.30;99.90
25280;DHT22;13225;47.804;12.116;2022-10-16T11:56:38;23.50;99.90
25280;DHT22;13225;47.804;12.116;2022-10-16T11:59:14;23.70;99.90
25280;DHT22;13225;47.804;12.116;2022-10-16T12:01:57;23.90;99.90
25280;DHT22;13225;47.804;12.116;2022-10-16T12:04:34;24.50;99.90
25280;DHT22;13225;47.804;12.116;2022-10-16T12:07:08;25.40;99.90
25280;DHT22;13225;47.804;12.116;2022-10-16T12:09:38;26.00;99.90
25280;DHT22;13225;47.804;12.116;2022-10-16T12:12:05;26.50;99.90
25280;DHT22;13225;47.804;12.116;2022-10-16T12:14:40;26.60;99.90
25280;DHT22;13225;47.804;12.116;2022-10-16T12:17:25;26.30;99.90
25280;DHT22;13225;47.804;12.116;2022-10-16T12:22:55;26.30;99.90
25280;DHT22;13225;47.804;12.116;2022-10-16T12:28:06;26.70;99.90
25280;DHT22;13225;47.804;12.116;2022-10-16T12:30:35;26.80;99.90
25280;DHT22;13225;47.804;12.116;2022-10-16T12:33:03;27.20;99.90
25280;DHT22;13225;47.804;12.116;2022-10-16T12:35:33;26.90;99.90
25280;DHT22;13225;47.804;12.116;2022-10-16T12:38:19;27.20;99.90
25280;DHT22;13225;47.804;12.116;2022-10-16T12:43:37;27.50;99.90
25280;DHT22;13225;47.804;12.116;2022-10-16T12:48:38;28.20;99.30
25280;DHT22;13225;47.804;12.116;2022-10-16T12:51:25;28.30;98.70
25280;DHT22;13225;47.804;12.116;2022-10-16T12:54:02;27.40;98.40
25280;DHT22;13225;47.804;12.116;2022-10-16T12:56:58;27.30;99.30
25280;DHT22;13225;47.804;12.116;2022-10-16T12:59:43;27.00;99.60
25280;DHT22;13225;47.804;12.116;2022-10-16T13:08:15;28.70;96.80
25280;DHT22;13225;47.804;12.116;2022-10-16T13:11:09;29.00;96.50
25280;DHT22;13225;47.804;12.116;2022-10-16T13:19:46;29.30;93.50
25280;DHT22;13225;47.804;12.116;2022-10-16T13:21:54;29.60;93.10
25280;DHT22;13225;47.804;12.116;2022-10-16T13:24:43;30.00;92.90
25280;DHT22;13225;47.804;12.116;2022-10-16T13:29:44;28.50;95.00
25280;DHT22;13225;47.804;12.116;2022-10-16T13:32:11;28.20;94.30
25280;DHT22;13225;47.804;12.116;2022-10-16T13:34:46;27.90;95.00
25280;DHT22;13225;47.804;12.116;2022-10-16T13:37:20;27.90;95.20
25280;DHT22;13225;47.804;12.116;2022-10-16T13:39:47;27.60;95.90
25280;DHT22;13225;47.804;12.116;2022-10-16T13:42:20;27.80;96.00
25280;DHT22;13225;47.804;12.116;2022-10-16T13:44:52;27.40;96.50
25280;DHT22;13225;47.804;12.116;2022-10-16T13:47:27;27.70;96.70
25280;DHT22;13225;47.804;12.116;2022-10-16T13:50:03;28.00;95.40
25280;DHT22;13225;47.804;12.116;2022-10-16T13:52:29;28.30;97.50
25280;DHT22;13225;47.804;12.116;2022-10-16T13:54:55;28.50;96.10
25280;DHT22;13225;47.804;12.116;2022-10-16T13:57:23;28.60;95.40
25280;DHT22;13225;47.804;12.116;2022-10-16T13:59:50;28.60;96.40
25280;DHT22;13225;47.804;12.116;2022-10-16T14:02:37;28.00;96.70
25280;DHT22;13225;47.804;12.116;2022-10-16T14:05:04;28.20;97.30
25280;DHT22;13225;47.804;12.116;2022-10-16T14:07:34;28.90;97.30
25280;DHT22;13225;47.804;12.116;2022-10-16T14:10:04;28.80;96.00
25280;DHT22;13225;47.804;12.116;2022-10-16T14:12:31;28.40;95.50
25280;DHT22;13225;47.804;12.116;2022-10-16T14:14:58;28.20;97.00
25280;DHT22;13225;47.804;12.116;2022-10-16T14:17:31;28.10;98.10
25280;DHT22;13225;47.804;12.116;2022-10-16T14:19:59;28.30;96.90
25280;DHT22;13225;47.804;12.116;2022-10-16T14:22:35;28.30;95.60
25280;DHT22;13225;47.804;12.116;2022-10-16T14:27:43;28.20;96.60
25280;DHT22;13225;47.804;12.116;2022-10-16T14:30:19;27.50;97.10
25280;DHT22;13225;47.804;12.116;2022-10-16T14:33:06;26.90;98.10
25280;DHT22;13225;47.804;12.116;2022-10-16T14:35:44;26.60;98.50
25280;DHT22;13225;47.804;12.116;2022-10-16T14:38:19;26.90;99.20
25280;DHT22;13225;47.804;12.116;2022-10-16T14:40:49;27.10;98.10
25280;DHT22;13225;47.804;12.116;2022-10-16T14:43:22;27.00;98.00
25280;DHT22;13225;47.804;12.116;2022-10-16T14:45:52;26.50;98.40
25280;DHT22;13225;47.804;12.116;2022-10-16T14:48:19;26.10;99.30
25280;DHT22;13225;47.804;12.116;2022-10-16T14:50:45;25.90;99.90
25280;DHT22;13225;47.804;12.116;2022-10-16T14:53:14;25.30;99.90
25280;DHT22;13225;47.804;12.116;2022-10-16T14:55:41;25.10;97.90
25280;DHT22;13225;47.804;12.116;2022-10-16T14:58:20;24.90;97.70
25280;DHT22;13225;47.804;12.116;2022-10-16T15:00:48;24.60;97.60
25280;DHT22;13225;47.804;12.116;2022-10-16T15:03:14;24.40;98.70
25280;DHT22;13225;47.804;12.116;2022-10-16T15:05:40;24.20;98.60
25280;DHT22;13225;47.804;12.116;2022-10-16T15:08:06;24.10;97.60
25280;DHT22;13225;47.804;12.116;2022-10-16T15:10:38;23.70;99.90
25280;DHT22;13225;47.804;12.116;2022-10-16T15:13:03;23.40;99.90
25280;DHT22;13225;47.804;12.116;2022-10-16T15:15:35;23.20;99.90
25280;DHT22;13225;47.804;12.116;2022-10-16T15:18:02;23.10;99.90
25280;DHT22;13225;47.804;12.116;2022-10-16T15:20:30;22.90;99.90
25280;DHT22;13225;47.804;12.116;2022-10-16T15:22:56;22.80;99.90
25280;DHT22;13225;47.804;12.116;2022-10-16T15:27:51;22.50;99.90
25280;DHT22;13225;47.804;12.116;2022-10-16T15:30:17;22.40;99.90
25280;DHT22;13225;47.804;12.116;2022-10-16T15:32:42;22.40;99.90
25280;DHT22;13225;47.804;12.116;2022-10-16T15:35:09;22.30;99.90
25280;DHT22;13225;47.804;12.116;2022-10-16T15:37:34;22.20;99.90
25280;DHT22;13225;47.804;12.116;2022-10-16T15:40:00;22.00;99.90
25280;DHT22;13225;47.804;12.116;2022-10-16T15:42:26;21.80;99.90
25280;DHT22;13225;47.804;12.116;2022-10-16T15:44:51;21.70;99.90
25280;DHT22;13225;47.804;12.116;2022-10-16T15:47:17;21.50;99.90
25280;DHT22;13225;47.804;12.116;2022-10-16T15:49:43;21.30;99.90
25280;DHT22;13225;47.804;12.116;2022-10-16T15:52:08;21.00;99.90
25280;DHT22;13225;47.804;12.116;2022-10-16T15:54:34;20.70;99.90
25280;DHT22;13225;47.804;12.116;2022-10-16T15:56:59;20.40;99.90
25280;DHT22;13225;47.804;12.116;2022-10-16T15:59:26;20.20;99.90
25280;DHT22;13225;47.804;12.116;2022-10-16T16:01:52;19.90;99.90
25280;DHT22;13225;47.804;12.116;2022-10-16T16:04:17;19.70;99.90
25280;DHT22;13225;47.804;12.116;2022-10-16T16:06:43;19.30;99.90
25280;DHT22;13225;47.804;12.116;2022-10-16T16:09:10;19.20;99.90
25280;DHT22;13225;47.804;12.116;2022-10-16T16:11:37;19.00;99.90
25280;DHT22;13225;47.804;12.116;2022-10-16T16:14:05;18.90;99.90
25280;DHT22;13225;47.804;12.116;2022-10-16T16:16:30;18.70;99.90
25280;DHT22;13225;47.804;12.116;2022-10-16T16:18:58;18.60;99.90
25280;DHT22;13225;47.804;12.116;2022-10-16T16:21:24;18.50;99.90
25280;DHT22;13225;47.804;12.116;2022-10-16T16:23:50;18.40;99.90
25280;DHT22;13225;47.804;12.116;2022-10-16T16:26:26;18.30;99.90
25280;DHT22;13225;47.804;12.116;2022-10-16T16:28:53;18.30;99.90
25280;DHT22;13225;47.804;12.116;2022-10-16T16:31:19;18.20;99.90
25280;DHT22;13225;47.804;12.116;2022-10-16T16:33:51;18.00;99.90
25280;DHT22;13225;47.804;12.116;2022-10-16T16:36:17;17.90;99.90
25280;DHT22;13225;47.804;12.116;2022-10-16T16:38:46;17.70;99.90
25280;DHT22;13225;47.804;12.116;2022-10-16T16:41:19;17.60;99.90
25280;DHT22;13225;47.804;12.116;2022-10-16T16:43:45;17.40;99.90
25280;DHT22;13225;47.804;12.116;2022-10-16T16:46:13;17.30;99.90
25280;DHT22;13225;47.804;12.116;2022-10-16T16:48:39;17.20;99.90
25280;DHT22;13225;47.804;12.116;2022-10-16T16:51:13;17.10;99.90
25280;DHT22;13225;47.804;12.116;2022-10-16T16:53:45;17.00;99.90
25280;DHT22;13225;47.804;12.116;2022-10-16T16:56:12;16.90;99.90
25280;DHT22;13225;47.804;12.116;2022-10-16T16:58:38;16.90;99.90
25280;DHT22;13225;47.804;12.116;2022-10-16T17:01:04;16.70;99.90
25280;DHT22;13225;47.804;12.116;2022-10-16T17:03:34;16.60;99.90
25280;DHT22;13225;47.804;12.116;2022-10-16T17:06:03;16.60;99.90
25280;DHT22;13225;47.804;12.116;2022-10-16T17:08:30;16.50;99.90
25280;DHT22;13225;47.804;12.116;2022-10-16T17:10:56;16.40;99.90
25280;DHT22;13225;47.804;12.116;2022-10-16T17:13:26;16.40;99.90
25280;DHT22;13225;47.804;12.116;2022-10-16T17:15:53;16.40;99.90
25280;DHT22;13225;47.804;12.116;2022-10-16T17:18:22;16.30;99.90
25280;DHT22;13225;47.804;12.116;2022-10-16T17:20:48;16.20;99.90
25280;DHT22;13225;47.804;12.116;2022-10-16T17:23:14;16.10;99.90
25280;DHT22;13225;47.804;12.116;2022-10-16T17:25:41;16.10;99.90
25280;DHT22;13225;47.804;12.116;2022-10-16T17:28:08;16.10;99.90
25280;DHT22;13225;47.804;12.116;2022-10-16T17:30:37;16.00;99.90
25280;DHT22;13225;47.804;12.116;2022-10-16T17:33:04;16.00;99.90